sensor_id;sensor_type;location;lat;lon;timestamp;pressure;altitude;pressure_sealevel;temperature;humidity
8366;BME280;4220;42.502;24.188;2023-04-29T00:00:43;95383.91;;;6.80;100.00
8366;BME280;4220;42.502;24.188;2023-04-29T00:03:09;95381.91;;;6.89;100.00
8366;BME280;4220;42.502;24.188;2023-04-29T00:05:36;95384.56;;;6.89;100.00
8366;BME280;4220;42.502;24.188;2023-04-29T00:08:05;95347.50;;;6.69;100.00
8366;BME280;4220;42.502;24.188;2023-04-29T00:10:32;95384.75;;;6.87;100.00
8366;BME280;4220;42.502;24.188;2023-04-29T00:12:58;95391.13;;;6.99;100.00
8366;BME280;4220;42.502;24.188;2023-04-29T00:15:25;95387.72;;;7.05;100.00
8366;BME280;4220;42.502;24.188;2023-04-29T00:17:52;95389.97;;;7.08;100.00
8366;BME280;4220;42.502;24.188;2023-04-29T00:20:20;95377.41;;;7.10;100.00
8366;BME280;4220;42.502;24.188;2023-04-29T00:22:46;95387.56;;;7.13;100.00
8366;BME280;4220;42.502;24.188;2023-04-29T00:25:15;95367.56;;;6.98;100.00
8366;BME280;4220;42.502;24.188;2023-04-29T00:27:42;95392.84;;;7.13;100.00
8366;BME280;4220;42.502;24.188;2023-04-29T00:30:09;95390.66;;;7.17;98.37
8366;BME280;4220;42.502;24.188;2023-04-29T00:32:36;95343.19;;;6.89;99.08
8366;BME280;4220;42.502;24.188;2023-04-29T00:35:03;95381.91;;;7.16;100.00
8366;BME280;4220;42.502;24.188;2023-04-29T00:37:30;95379.66;;;7.13;100.00
8366;BME280;4220;42.502;24.188;2023-04-29T00:39:57;95380.84;;;7.11;100.00
8366;BME280;4220;42.502;24.188;2023-04-29T00:42:26;95386.34;;;7.09;100.00
8366;BME280;4220;42.502;24.188;2023-04-29T00:44:53;95382.88;;;7.09;100.00
8366;BME280;4220;42.502;24.188;2023-04-29T00:47:20;95374.53;;;7.05;100.00
8366;BME280;4220;42.502;24.188;2023-04-29T00:49:47;95378.19;;;7.04;100.00
8366;BME280;4220;42.502;24.188;2023-04-29T00:52:13;95382.63;;;7.04;100.00
8366;BME280;4220;42.502;24.188;2023-04-29T00:54:41;95378.94;;;6.98;100.00
8366;BME280;4220;42.502;24.188;2023-04-29T00:57:08;95380.22;;;7.02;100.00
8366;BME280;4220;42.502;24.188;2023-04-29T00:59:36;95371.00;;;6.92;100.00
8366;BME280;4220;42.502;24.188;2023-04-29T01:02:03;95359.53;;;6.78;99.86
8366;BME280;4220;42.502;24.188;2023-04-29T01:04:30;95386.03;;;6.70;99.65
8366;BME280;4220;42.502;24.188;2023-04-29T01:07:03;95375.38;;;6.57;100.00
8366;BME280;4220;42.502;24.188;2023-04-29T01:09:46;95359.94;;;6.54;100.00
8366;BME280;4220;42.502;24.188;2023-04-29T01:12:20;95360.47;;;6.43;100.00
8366;BME280;4220;42.502;24.188;2023-04-29T01:14:53;95364.78;;;6.08;100.00
8366;BME280;4220;42.502;24.188;2023-04-29T01:17:24;95363.53;;;6.04;100.00
8366;BME280;4220;42.502;24.188;2023-04-29T01:19:53;95359.97;;;6.12;100.00
8366;BME280;4220;42.502;24.188;2023-04-29T01:22:21;95362.47;;;6.20;100.00
8366;BME280;4220;42.502;24.188;2023-04-29T01:24:49;95336.28;;;6.12;100.00
8366;BME280;4220;42.502;24.188;2023-04-29T01:27:23;95361.09;;;6.24;100.00
8366;BME280;4220;42.502;24.188;2023-04-29T01:29:59;95344.97;;;6.12;100.00
8366;BME280;4220;42.502;24.188;2023-04-29T01:32:36;95357.66;;;6.23;100.00
8366;BME280;4220;42.502;24.188;2023-04-29T01:35:14;95362.47;;;6.20;100.00
8366;BME280;4220;42.502;24.188;2023-04-29T01:37:49;95351.81;;;6.07;100.00
8366;BME280;4220;42.502;24.188;2023-04-29T01:40:25;95359.06;;;6.05;100.00
8366;BME280;4220;42.502;24.188;2023-04-29T01:43:00;95360.34;;;6.09;100.00
8366;BME280;4220;42.502;24.188;2023-04-29T01:45:30;95341.34;;;5.92;100.00
8366;BME280;4220;42.502;24.188;2023-04-29T01:47:58;95355.94;;;5.95;100.00
8366;BME280;4220;42.502;24.188;2023-04-29T01:50:26;95344.41;;;5.96;100.00
8366;BME280;4220;42.502;24.188;2023-04-29T01:52:53;95341.34;;;5.92;100.00
8366;BME280;4220;42.502;24.188;2023-04-29T01:55:21;95351.22;;;5.90;100.00
8366;BME280;4220;42.502;24.188;2023-04-29T01:57:48;95344.22;;;5.82;100.00
8366;BME280;4220;42.502;24.188;2023-04-29T02:00:15;95326.03;;;5.66;100.00
8366;BME280;4220;42.502;24.188;2023-04-29T02:02:42;95347.53;;;5.84;100.00
8366;BME280;4220;42.502;24.188;2023-04-29T02:05:09;95340.88;;;5.88;100.00
8366;BME280;4220;42.502;24.188;2023-04-29T02:07:36;95345.94;;;5.90;100.00
8366;BME280;4220;42.502;24.188;2023-04-29T02:10:03;95349.66;;;5.81;100.00
8366;BME280;4220;42.502;24.188;2023-04-29T02:12:31;95344.44;;;5.66;100.00
8366;BME280;4220;42.502;24.188;2023-04-29T02:14:59;95343.91;;;5.56;100.00
8366;BME280;4220;42.502;24.188;2023-04-29T02:17:26;95340.81;;;5.67;100.00
8366;BME280;4220;42.502;24.188;2023-04-29T02:19:52;95345.25;;;5.67;100.00
8366;BME280;4220;42.502;24.188;2023-04-29T02:22:20;95350.53;;;5.67;100.00
8366;BME280;4220;42.502;24.188;2023-04-29T02:24:46;95357.91;;;5.57;100.00
8366;BME280;4220;42.502;24.188;2023-04-29T02:27:13;95348.34;;;5.56;100.00
8366;BME280;4220;42.502;24.188;2023-04-29T02:29:41;95343.63;;;5.66;100.00
8366;BME280;4220;42.502;24.188;2023-04-29T02:32:08;95312.34;;;5.56;100.00
8366;BME280;4220;42.502;24.188;2023-04-29T02:34:35;95340.59;;;5.83;100.00
8366;BME280;4220;42.502;24.188;2023-04-29T02:37:02;95302.34;;;5.66;100.00
8366;BME280;4220;42.502;24.188;2023-04-29T02:39:29;95332.63;;;5.91;100.00
8366;BME280;4220;42.502;24.188;2023-04-29T02:41:56;95326.91;;;5.88;100.00
8366;BME280;4220;42.502;24.188;2023-04-29T02:44:23;95324.19;;;5.81;100.00
8366;BME280;4220;42.502;24.188;2023-04-29T02:46:51;95336.59;;;5.87;100.00
8366;BME280;4220;42.502;24.188;2023-04-29T02:49:18;95349.47;;;5.82;100.00
8366;BME280;4220;42.502;24.188;2023-04-29T02:51:45;95354.59;;;5.69;100.00
8366;BME280;4220;42.502;24.188;2023-04-29T02:54:14;95227.59;;;4.89;100.00
8366;BME280;4220;42.502;24.188;2023-04-29T02:56:41;95344.81;;;5.63;100.00
8366;BME280;4220;42.502;24.188;2023-04-29T02:59:08;95339.19;;;5.66;100.00
8366;BME280;4220;42.502;24.188;2023-04-29T03:01:35;95335.56;;;5.67;100.00
8366;BME280;4220;42.502;24.188;2023-04-29T03:04:04;95347.69;;;5.68;100.00
8366;BME280;4220;42.502;24.188;2023-04-29T03:06:31;95338.91;;;5.61;100.00
8366;BME280;4220;42.502;24.188;2023-04-29T03:08:58;95331.88;;;5.47;100.00
8366;BME280;4220;42.502;24.188;2023-04-29T03:11:25;95343.03;;;5.49;100.00
8366;BME280;4220;42.502;24.188;2023-04-29T03:13:52;95335.72;;;5.15;100.00
8366;BME280;4220;42.502;24.188;2023-04-29T03:16:19;95341.50;;;4.96;100.00
8366;BME280;4220;42.502;24.188;2023-04-29T03:18:46;95353.09;;;4.73;100.00
8366;BME280;4220;42.502;24.188;2023-04-29T03:21:15;95354.34;;;4.77;100.00
8366;BME280;4220;42.502;24.188;2023-04-29T03:23:42;95359.25;;;4.80;100.00
8366;BME280;4220;42.502;24.188;2023-04-29T03:26:09;95362.00;;;4.86;100.00
8366;BME280;4220;42.502;24.188;2023-04-29T03:28:35;95358.09;;;4.97;100.00
8366;BME280;4220;42.502;24.188;2023-04-29T03:31:02;95355.75;;;5.02;100.00
8366;BME280;4220;42.502;24.188;2023-04-29T03:33:29;95351.56;;;5.07;100.00
8366;BME280;4220;42.502;24.188;2023-04-29T03:35:56;95360.44;;;5.06;100.00
8366;BME280;4220;42.502;24.188;2023-04-29T03:38:24;95363.81;;;5.00;100.00
8366;BME280;4220;42.502;24.188;2023-04-29T03:40:51;95375.00;;;4.80;100.00
8366;BME280;4220;42.502;24.188;2023-04-29T03:43:18;95362.50;;;4.67;100.00
8366;BME280;4220;42.502;24.188;2023-04-29T03:45:44;95380.13;;;4.96;100.00
8366;BME280;4220;42.502;24.188;2023-04-29T03:48:11;95378.06;;;5.06;100.00
8366;BME280;4220;42.502;24.188;2023-04-29T03:50:38;95382.50;;;5.20;100.00
8366;BME280;4220;42.502;24.188;2023-04-29T03:53:06;95369.06;;;5.15;100.00
8366;BME280;4220;42.502;24.188;2023-04-29T03:55:34;95376.75;;;5.31;100.00
8366;BME280;4220;42.502;24.188;2023-04-29T03:58:01;95373.84;;;5.41;100.00
8366;BME280;4220;42.502;24.188;2023-04-29T04:00:28;95368.34;;;5.50;100.00
8366;BME280;4220;42.502;24.188;2023-04-29T04:02:56;95377.19;;;5.64;100.00
8366;BME280;4220;42.502;24.188;2023-04-29T04:05:23;95371.03;;;5.71;100.00
8366;BME280;4220;42.502;24.188;2023-04-29T04:07:50;95374.19;;;5.81;100.00
8366;BME280;4220;42.502;24.188;2023-04-29T04:10:17;95381.34;;;5.87;100.00
8366;BME280;4220;42.502;24.188;2023-04-29T04:12:45;95383.97;;;5.87;100.00
8366;BME280;4220;42.502;24.188;2023-04-29T04:15:12;95378.34;;;5.90;100.00
8366;BME280;4220;42.502;24.188;2023-04-29T04:17:39;95387.28;;;5.89;100.00
8366;BME280;4220;42.502;24.188;2023-04-29T04:20:07;95381.03;;;5.97;100.00
8366;BME280;4220;42.502;24.188;2023-04-29T04:22:34;95393.41;;;5.97;100.00
8366;BME280;4220;42.502;24.188;2023-04-29T04:25:01;95399.31;;;5.99;100.00
8366;BME280;4220;42.502;24.188;2023-04-29T04:27:28;95392.53;;;5.89;100.00
8366;BME280;4220;42.502;24.188;2023-04-29T04:29:57;95401.06;;;5.91;100.00
8366;BME280;4220;42.502;24.188;2023-04-29T04:32:23;95413.19;;;5.92;100.00
8366;BME280;4220;42.502;24.188;2023-04-29T04:34:50;95400.19;;;6.06;100.00
8366;BME280;4220;42.502;24.188;2023-04-29T04:37:17;95376.75;;;6.11;100.00
8366;BME280;4220;42.502;24.188;2023-04-29T04:39:44;95386.91;;;6.35;100.00
8366;BME280;4220;42.502;24.188;2023-04-29T04:42:11;95380.47;;;6.37;99.51
8366;BME280;4220;42.502;24.188;2023-04-29T04:44:37;95398.84;;;6.52;98.47
8366;BME280;4220;42.502;24.188;2023-04-29T04:47:06;95389.63;;;6.63;99.93
8366;BME280;4220;42.502;24.188;2023-04-29T04:49:32;95376.50;;;6.69;98.43
8366;BME280;4220;42.502;24.188;2023-04-29T04:51:59;95377.84;;;6.86;98.11
8366;BME280;4220;42.502;24.188;2023-04-29T04:54:26;95369.78;;;6.94;96.70
8366;BME280;4220;42.502;24.188;2023-04-29T04:56:53;95370.84;;;7.00;96.40
8366;BME280;4220;42.502;24.188;2023-04-29T04:59:19;95367.03;;;7.02;95.63
8366;BME280;4220;42.502;24.188;2023-04-29T05:01:46;95366.44;;;7.07;94.91
8366;BME280;4220;42.502;24.188;2023-04-29T05:04:14;95361.19;;;7.13;95.00
8366;BME280;4220;42.502;24.188;2023-04-29T05:06:41;95363.69;;;7.21;93.60
8366;BME280;4220;42.502;24.188;2023-04-29T05:09:08;95364.16;;;7.32;93.34
8366;BME280;4220;42.502;24.188;2023-04-29T05:11:35;95357.72;;;7.41;92.61
8366;BME280;4220;42.502;24.188;2023-04-29T05:14:02;95366.22;;;7.43;91.72
8366;BME280;4220;42.502;24.188;2023-04-29T05:16:29;95358.56;;;7.48;93.13
8366;BME280;4220;42.502;24.188;2023-04-29T05:18:56;95357.34;;;7.50;92.32
8366;BME280;4220;42.502;24.188;2023-04-29T05:21:24;95369.03;;;7.35;91.03
8366;BME280;4220;42.502;24.188;2023-04-29T05:23:51;95347.03;;;7.21;91.45
8366;BME280;4220;42.502;24.188;2023-04-29T05:26:18;95263.31;;;6.61;91.70
8366;BME280;4220;42.502;24.188;2023-04-29T05:28:45;95360.19;;;7.14;92.85
8366;BME280;4220;42.502;24.188;2023-04-29T05:31:12;95358.88;;;7.32;94.33
8366;BME280;4220;42.502;24.188;2023-04-29T05:33:39;95346.81;;;7.57;94.15
8366;BME280;4220;42.502;24.188;2023-04-29T05:36:06;95315.13;;;7.57;93.38
8366;BME280;4220;42.502;24.188;2023-04-29T05:38:34;95339.47;;;8.00;94.22
8366;BME280;4220;42.502;24.188;2023-04-29T05:41:01;95351.72;;;8.20;90.49
8366;BME280;4220;42.502;24.188;2023-04-29T05:43:28;95350.97;;;8.39;91.46
8366;BME280;4220;42.502;24.188;2023-04-29T05:45:55;95320.66;;;8.35;88.45
8366;BME280;4220;42.502;24.188;2023-04-29T05:48:22;95344.28;;;8.70;85.93
8366;BME280;4220;42.502;24.188;2023-04-29T05:50:49;95351.59;;;8.81;84.92
8366;BME280;4220;42.502;24.188;2023-04-29T05:53:16;95299.53;;;8.62;85.90
8366;BME280;4220;42.502;24.188;2023-04-29T05:55:44;95340.19;;;9.00;83.67
8366;BME280;4220;42.502;24.188;2023-04-29T05:58:11;95303.38;;;8.92;85.42
8366;BME280;4220;42.502;24.188;2023-04-29T06:00:39;95343.84;;;9.18;83.84
8366;BME280;4220;42.502;24.188;2023-04-29T06:03:08;95349.94;;;9.12;80.64
8366;BME280;4220;42.502;24.188;2023-04-29T06:05:35;95342.59;;;9.21;81.70
8366;BME280;4220;42.502;24.188;2023-04-29T06:08:03;95339.31;;;9.32;85.48
8366;BME280;4220;42.502;24.188;2023-04-29T06:10:30;95245.41;;;8.84;83.43
8366;BME280;4220;42.502;24.188;2023-04-29T06:12:59;95351.47;;;9.59;81.80
8366;BME280;4220;42.502;24.188;2023-04-29T06:15:26;95238.03;;;9.05;84.86
8366;BME280;4220;42.502;24.188;2023-04-29T06:17:53;95341.97;;;9.90;80.25
8366;BME280;4220;42.502;24.188;2023-04-29T06:20:20;95332.56;;;9.94;79.28
8366;BME280;4220;42.502;24.188;2023-04-29T06:22:47;95334.63;;;9.92;77.29
8366;BME280;4220;42.502;24.188;2023-04-29T06:25:14;95331.69;;;10.06;78.33
8366;BME280;4220;42.502;24.188;2023-04-29T06:27:41;95331.22;;;10.22;74.31
8366;BME280;4220;42.502;24.188;2023-04-29T06:30:10;95327.66;;;10.41;74.97
8366;BME280;4220;42.502;24.188;2023-04-29T06:32:37;95335.47;;;10.61;72.69
8366;BME280;4220;42.502;24.188;2023-04-29T06:35:04;95319.41;;;10.81;72.34
8366;BME280;4220;42.502;24.188;2023-04-29T06:37:31;95288.66;;;10.73;72.25
8366;BME280;4220;42.502;24.188;2023-04-29T06:39:58;95327.13;;;11.07;70.84
8366;BME280;4220;42.502;24.188;2023-04-29T06:42:25;95302.63;;;11.05;68.11
8366;BME280;4220;42.502;24.188;2023-04-29T06:44:52;95314.91;;;11.24;66.23
8366;BME280;4220;42.502;24.188;2023-04-29T06:47:21;95326.94;;;11.45;65.21
8366;BME280;4220;42.502;24.188;2023-04-29T06:49:48;95320.63;;;11.21;61.29
8366;BME280;4220;42.502;24.188;2023-04-29T06:52:14;95323.09;;;11.23;64.66
8366;BME280;4220;42.502;24.188;2023-04-29T06:54:41;95331.41;;;11.26;60.35
8366;BME280;4220;42.502;24.188;2023-04-29T06:57:08;95329.88;;;11.37;59.84
8366;BME280;4220;42.502;24.188;2023-04-29T06:59:35;95320.31;;;11.54;60.41
8366;BME280;4220;42.502;24.188;2023-04-29T07:02:02;95282.25;;;11.42;59.51
8366;BME280;4220;42.502;24.188;2023-04-29T07:04:30;95312.72;;;11.75;58.37
8366;BME280;4220;42.502;24.188;2023-04-29T07:06:57;95312.91;;;11.92;58.68
8366;BME280;4220;42.502;24.188;2023-04-29T07:09:24;95312.19;;;11.85;58.63
8366;BME280;4220;42.502;24.188;2023-04-29T07:11:52;95310.59;;;11.84;58.29
8366;BME280;4220;42.502;24.188;2023-04-29T07:14:19;95311.06;;;12.11;57.64
8366;BME280;4220;42.502;24.188;2023-04-29T07:16:47;95315.03;;;12.31;59.44
8366;BME280;4220;42.502;24.188;2023-04-29T07:19:18;95306.78;;;12.21;57.78
8366;BME280;4220;42.502;24.188;2023-04-29T07:21:46;95302.66;;;12.25;57.76
8366;BME280;4220;42.502;24.188;2023-04-29T07:24:13;95307.88;;;12.32;57.23
8366;BME280;4220;42.502;24.188;2023-04-29T07:26:42;95290.53;;;12.29;59.58
8366;BME280;4220;42.502;24.188;2023-04-29T07:29:08;95310.13;;;12.46;57.26
8366;BME280;4220;42.502;24.188;2023-04-29T07:31:35;95319.22;;;12.39;57.62
8366;BME280;4220;42.502;24.188;2023-04-29T07:34:03;95314.84;;;12.44;54.98
8366;BME280;4220;42.502;24.188;2023-04-29T07:36:30;95299.94;;;12.43;55.90
8366;BME280;4220;42.502;24.188;2023-04-29T07:38:58;95307.72;;;12.57;54.13
8366;BME280;4220;42.502;24.188;2023-04-29T07:41:25;95299.97;;;12.55;53.41
8366;BME280;4220;42.502;24.188;2023-04-29T07:43:52;95300.81;;;12.67;52.42
8366;BME280;4220;42.502;24.188;2023-04-29T07:46:19;95298.03;;;12.85;52.61
8366;BME280;4220;42.502;24.188;2023-04-29T07:48:46;95303.28;;;12.92;52.70
8366;BME280;4220;42.502;24.188;2023-04-29T07:51:13;95291.81;;;13.03;52.91
8366;BME280;4220;42.502;24.188;2023-04-29T07:53:40;95316.38;;;13.28;51.64
8366;BME280;4220;42.502;24.188;2023-04-29T07:56:09;95313.84;;;13.33;50.84
8366;BME280;4220;42.502;24.188;2023-04-29T07:58:36;95315.09;;;13.42;50.42
8366;BME280;4220;42.502;24.188;2023-04-29T08:01:06;95302.47;;;13.61;50.00
8366;BME280;4220;42.502;24.188;2023-04-29T08:03:34;95273.94;;;13.61;48.84
8366;BME280;4220;42.502;24.188;2023-04-29T08:06:01;95296.88;;;13.62;50.19
8366;BME280;4220;42.502;24.188;2023-04-29T08:08:28;95294.81;;;13.53;49.28
8366;BME280;4220;42.502;24.188;2023-04-29T08:10:55;95293.78;;;13.42;49.90
8366;BME280;4220;42.502;24.188;2023-04-29T08:13:24;95302.13;;;13.46;51.03
8366;BME280;4220;42.502;24.188;2023-04-29T08:15:51;95304.41;;;13.65;50.15
8366;BME280;4220;42.502;24.188;2023-04-29T08:18:18;95307.38;;;13.92;49.10
8366;BME280;4220;42.502;24.188;2023-04-29T08:20:46;95305.19;;;14.17;49.76
8366;BME280;4220;42.502;24.188;2023-04-29T08:23:14;95306.06;;;14.23;48.19
8366;BME280;4220;42.502;24.188;2023-04-29T08:25:42;95300.28;;;14.26;47.64
8366;BME280;4220;42.502;24.188;2023-04-29T08:28:09;95299.25;;;14.27;48.63
8366;BME280;4220;42.502;24.188;2023-04-29T08:30:39;95294.47;;;14.29;48.75
8366;BME280;4220;42.502;24.188;2023-04-29T08:33:06;95296.00;;;14.53;47.65
8366;BME280;4220;42.502;24.188;2023-04-29T08:35:34;95275.84;;;14.46;47.83
8366;BME280;4220;42.502;24.188;2023-04-29T08:38:03;95289.84;;;14.69;47.60
8366;BME280;4220;42.502;24.188;2023-04-29T08:40:33;95277.00;;;14.83;46.11
8366;BME280;4220;42.502;24.188;2023-04-29T08:43:00;95297.31;;;15.17;45.99
8366;BME280;4220;42.502;24.188;2023-04-29T08:45:28;95291.31;;;15.27;45.28
8366;BME280;4220;42.502;24.188;2023-04-29T08:47:58;95274.56;;;15.15;44.93
8366;BME280;4220;42.502;24.188;2023-04-29T08:50:27;95277.34;;;15.41;44.47
8366;BME280;4220;42.502;24.188;2023-04-29T08:52:54;95282.94;;;15.56;44.33
8366;BME280;4220;42.502;24.188;2023-04-29T08:55:21;95283.00;;;15.83;43.21
8366;BME280;4220;42.502;24.188;2023-04-29T08:57:49;95274.13;;;15.99;42.58
8366;BME280;4220;42.502;24.188;2023-04-29T09:00:17;95266.44;;;16.08;42.78
8366;BME280;4220;42.502;24.188;2023-04-29T09:02:48;95275.56;;;16.12;42.51
8366;BME280;4220;42.502;24.188;2023-04-29T09:05:18;95270.81;;;16.41;42.38
8366;BME280;4220;42.502;24.188;2023-04-29T09:07:46;95250.88;;;16.31;39.64
8366;BME280;4220;42.502;24.188;2023-04-29T09:10:15;95266.94;;;16.31;40.29
8366;BME280;4220;42.502;24.188;2023-04-29T09:12:42;95252.06;;;15.92;40.65
8366;BME280;4220;42.502;24.188;2023-04-29T09:15:09;95247.53;;;15.93;41.08
8366;BME280;4220;42.502;24.188;2023-04-29T09:17:40;95242.31;;;16.29;40.77
8366;BME280;4220;42.502;24.188;2023-04-29T09:20:29;95242.50;;;16.50;40.28
8366;BME280;4220;42.502;24.188;2023-04-29T09:22:57;95237.38;;;16.70;39.33
8366;BME280;4220;42.502;24.188;2023-04-29T09:25:25;95218.38;;;16.76;39.19
8366;BME280;4220;42.502;24.188;2023-04-29T09:27:53;95238.41;;;17.00;38.66
8366;BME280;4220;42.502;24.188;2023-04-29T09:30:20;95226.00;;;16.89;38.70
8366;BME280;4220;42.502;24.188;2023-04-29T09:33:03;95241.34;;;16.99;38.67
8366;BME280;4220;42.502;24.188;2023-04-29T09:35:32;95131.41;;;16.15;38.94
8366;BME280;4220;42.502;24.188;2023-04-29T09:38:10;95216.75;;;16.70;39.11
8366;BME280;4220;42.502;24.188;2023-04-29T09:40:39;95211.69;;;16.74;40.74
8366;BME280;4220;42.502;24.188;2023-04-29T09:43:12;95212.66;;;16.94;39.16
8366;BME280;4220;42.502;24.188;2023-04-29T09:45:41;95204.91;;;17.03;39.34
8366;BME280;4220;42.502;24.188;2023-04-29T09:48:09;95203.75;;;16.89;38.70
8366;BME280;4220;42.502;24.188;2023-04-29T09:50:39;95204.56;;;16.89;38.10
8366;BME280;4220;42.502;24.188;2023-04-29T09:53:07;95106.91;;;16.28;38.80
8366;BME280;4220;42.502;24.188;2023-04-29T09:55:35;95190.31;;;16.84;38.56
8366;BME280;4220;42.502;24.188;2023-04-29T09:58:02;95191.38;;;16.78;38.81
8366;BME280;4220;42.502;24.188;2023-04-29T10:00:30;95196.69;;;17.15;39.14
8366;BME280;4220;42.502;24.188;2023-04-29T10:02:59;95190.03;;;17.27;38.44
8366;BME280;4220;42.502;24.188;2023-04-29T10:05:27;95188.81;;;17.50;37.79
8366;BME280;4220;42.502;24.188;2023-04-29T10:07:58;95174.97;;;17.63;37.76
8366;BME280;4220;42.502;24.188;2023-04-29T10:10:26;95162.41;;;17.74;37.59
8366;BME280;4220;42.502;24.188;2023-04-29T10:12:56;95163.25;;;17.99;37.23
8366;BME280;4220;42.502;24.188;2023-04-29T10:15:30;95164.34;;;18.18;36.56
8366;BME280;4220;42.502;24.188;2023-04-29T10:18:09;95159.00;;;18.39;35.59
8366;BME280;4220;42.502;24.188;2023-04-29T10:20:40;95152.34;;;18.61;35.52
8366;BME280;4220;42.502;24.188;2023-04-29T10:23:13;95144.78;;;18.88;35.12
8366;BME280;4220;42.502;24.188;2023-04-29T10:25:41;95147.44;;;19.09;34.62
8366;BME280;4220;42.502;24.188;2023-04-29T10:28:12;95141.44;;;19.32;34.09
8366;BME280;4220;42.502;24.188;2023-04-29T10:30:42;95132.44;;;19.67;34.25
8366;BME280;4220;42.502;24.188;2023-04-29T10:33:10;95129.41;;;19.83;33.77
8366;BME280;4220;42.502;24.188;2023-04-29T10:35:37;95134.44;;;20.00;33.91
8366;BME280;4220;42.502;24.188;2023-04-29T10:38:07;95135.25;;;19.95;33.97
8366;BME280;4220;42.502;24.188;2023-04-29T10:40:41;95121.25;;;19.98;33.57
8366;BME280;4220;42.502;24.188;2023-04-29T10:43:10;95045.59;;;19.56;33.79
8366;BME280;4220;42.502;24.188;2023-04-29T10:45:37;95118.13;;;20.20;33.45
8366;BME280;4220;42.502;24.188;2023-04-29T10:48:09;95111.28;;;20.38;32.26
8366;BME280;4220;42.502;24.188;2023-04-29T10:51:00;95101.81;;;20.74;31.97
8366;BME280;4220;42.502;24.188;2023-04-29T10:53:28;95112.97;;;21.20;31.96
8366;BME280;4220;42.502;24.188;2023-04-29T10:55:59;95109.75;;;21.18;31.12
8366;BME280;4220;42.502;24.188;2023-04-29T10:58:42;95105.81;;;21.52;31.15
8366;BME280;4220;42.502;24.188;2023-04-29T11:01:10;95098.66;;;21.85;31.00
8366;BME280;4220;42.502;24.188;2023-04-29T11:03:51;95098.53;;;21.95;30.51
8366;BME280;4220;42.502;24.188;2023-04-29T11:06:25;95098.16;;;22.02;30.50
8366;BME280;4220;42.502;24.188;2023-04-29T11:09:02;95090.81;;;21.89;30.09
8366;BME280;4220;42.502;24.188;2023-04-29T11:11:47;95043.09;;;21.61;30.39
8366;BME280;4220;42.502;24.188;2023-04-29T11:14:22;95081.56;;;21.71;30.25
8366;BME280;4220;42.502;24.188;2023-04-29T11:16:55;95097.66;;;21.58;30.45
8366;BME280;4220;42.502;24.188;2023-04-29T11:19:24;95078.88;;;21.29;30.74
8366;BME280;4220;42.502;24.188;2023-04-29T11:22:10;95090.47;;;21.29;31.17
8366;BME280;4220;42.502;24.188;2023-04-29T11:24:48;95065.91;;;21.07;30.65
8366;BME280;4220;42.502;24.188;2023-04-29T11:27:17;95082.72;;;21.23;30.73
8366;BME280;4220;42.502;24.188;2023-04-29T11:29:45;95085.00;;;21.11;30.51
8366;BME280;4220;42.502;24.188;2023-04-29T11:32:12;95080.84;;;20.71;31.01
8366;BME280;4220;42.502;24.188;2023-04-29T11:34:39;95080.09;;;20.32;31.32
8366;BME280;4220;42.502;24.188;2023-04-29T11:37:05;95076.59;;;19.92;31.52
8366;BME280;4220;42.502;24.188;2023-04-29T11:39:33;95042.91;;;19.56;32.60
8366;BME280;4220;42.502;24.188;2023-04-29T11:42:04;95072.25;;;19.96;32.36
8366;BME280;4220;42.502;24.188;2023-04-29T11:44:34;95075.66;;;20.12;31.95
8366;BME280;4220;42.502;24.188;2023-04-29T11:47:02;95062.41;;;20.15;31.80
8366;BME280;4220;42.502;24.188;2023-04-29T11:49:29;95062.81;;;20.38;31.75
8366;BME280;4220;42.502;24.188;2023-04-29T11:51:57;95063.25;;;21.02;31.25
8366;BME280;4220;42.502;24.188;2023-04-29T11:54:24;95047.94;;;21.64;30.83
8366;BME280;4220;42.502;24.188;2023-04-29T11:56:52;95055.16;;;22.05;31.10
8366;BME280;4220;42.502;24.188;2023-04-29T11:59:19;95045.38;;;22.28;31.62
8366;BME280;4220;42.502;24.188;2023-04-29T12:01:48;95034.31;;;21.92;32.28
8366;BME280;4220;42.502;24.188;2023-04-29T12:04:15;95062.22;;;21.83;31.66
8366;BME280;4220;42.502;24.188;2023-04-29T12:06:42;95059.03;;;21.81;32.59
8366;BME280;4220;42.502;24.188;2023-04-29T12:09:09;95036.91;;;21.60;32.48
8366;BME280;4220;42.502;24.188;2023-04-29T12:11:36;95042.28;;;21.60;32.74
8366;BME280;4220;42.502;24.188;2023-04-29T12:14:03;95033.91;;;21.80;32.57
8366;BME280;4220;42.502;24.188;2023-04-29T12:16:32;95025.66;;;22.09;32.13
8366;BME280;4220;42.502;24.188;2023-04-29T12:19:01;95030.47;;;22.44;32.23
8366;BME280;4220;42.502;24.188;2023-04-29T12:21:27;95035.88;;;22.76;31.80
8366;BME280;4220;42.502;24.188;2023-04-29T12:23:58;95031.78;;;22.93;31.08
8366;BME280;4220;42.502;24.188;2023-04-29T12:26:27;95032.19;;;22.86;31.53
8366;BME280;4220;42.502;24.188;2023-04-29T12:28:56;95030.69;;;22.94;31.40
8366;BME280;4220;42.502;24.188;2023-04-29T12:31:23;95020.38;;;22.96;31.81
8366;BME280;4220;42.502;24.188;2023-04-29T12:33:57;95023.28;;;23.13;31.35
8366;BME280;4220;42.502;24.188;2023-04-29T12:36:26;95025.19;;;23.26;31.33
8366;BME280;4220;42.502;24.188;2023-04-29T12:38:53;94997.72;;;23.19;30.92
8366;BME280;4220;42.502;24.188;2023-04-29T12:41:35;95011.16;;;23.37;30.33
8366;BME280;4220;42.502;24.188;2023-04-29T12:44:02;95018.97;;;23.12;30.31
8366;BME280;4220;42.502;24.188;2023-04-29T12:46:33;95011.34;;;22.73;30.95
8366;BME280;4220;42.502;24.188;2023-04-29T12:49:01;95014.09;;;22.54;31.90
8366;BME280;4220;42.502;24.188;2023-04-29T12:51:29;95014.16;;;22.36;31.76
8366;BME280;4220;42.502;24.188;2023-04-29T12:53:58;94975.81;;;21.83;32.03
8366;BME280;4220;42.502;24.188;2023-04-29T12:56:25;95013.19;;;21.76;32.47
8366;BME280;4220;42.502;24.188;2023-04-29T12:58:51;95013.78;;;21.73;32.50
8366;BME280;4220;42.502;24.188;2023-04-29T13:01:18;95009.41;;;21.77;32.14
8366;BME280;4220;42.502;24.188;2023-04-29T13:03:45;95001.47;;;21.85;32.21
8366;BME280;4220;42.502;24.188;2023-04-29T13:06:13;95000.81;;;22.26;32.15
8366;BME280;4220;42.502;24.188;2023-04-29T13:08:42;95006.91;;;22.63;31.48
8366;BME280;4220;42.502;24.188;2023-04-29T13:11:09;95005.94;;;22.87;31.26
8366;BME280;4220;42.502;24.188;2023-04-29T13:13:37;94997.34;;;22.85;31.18
8366;BME280;4220;42.502;24.188;2023-04-29T13:16:05;95006.75;;;22.87;31.05
8366;BME280;4220;42.502;24.188;2023-04-29T13:18:32;94998.25;;;22.80;30.54